createdAt,value
2018-03-14T00:04:08.732Z,13.93
2018-03-14T00:08:52.111Z,13.30
2018-03-14T00:13:35.639Z,14.63
2018-03-14T00:18:18.977Z,13.20
2018-03-14T00:23:02.416Z,12.47
2018-03-14T00:27:45.880Z,12.70
2018-03-14T00:32:30.038Z,12.60
2018-03-14T00:37:13.399Z,13.03
2018-03-14T00:41:57.226Z,15.53
2018-03-14T00:46:41.414Z,14.37
2018-03-14T00:56:49.451Z,14.73
2018-03-14T01:01:32.913Z,15.63
2018-03-14T01:06:16.281Z,15.13
2018-03-14T01:11:00.628Z,12.73
2018-03-14T01:15:44.045Z,13.67
2018-03-14T01:20:27.459Z,14.00
2018-03-14T01:25:11.623Z,12.57
2018-03-14T01:35:24.513Z,14.07
2018-03-14T01:45:04.438Z,14.83
2018-03-14T01:49:47.895Z,17.40
2018-03-14T01:54:31.209Z,17.77
2018-03-14T01:59:14.619Z,16.63
2018-03-14T02:03:58.935Z,19.17
2018-03-14T02:08:42.333Z,19.30
2018-03-14T02:13:25.792Z,18.87
2018-03-14T02:18:09.160Z,20.47
2018-03-14T02:22:52.602Z,18.03
2018-03-14T02:27:35.981Z,19.23
2018-03-14T02:32:22.328Z,17.87
2018-03-14T02:37:05.783Z,18.23
2018-03-14T02:41:51.015Z,19.13
2018-03-14T02:46:34.370Z,20.40
2018-03-14T02:51:17.780Z,20.83
2018-03-14T02:56:01.151Z,21.50
2018-03-14T03:00:44.508Z,20.00
2018-03-14T03:05:27.861Z,21.10
2018-03-14T03:10:11.258Z,21.40
2018-03-14T03:14:54.586Z,23.10
2018-03-14T03:19:37.932Z,23.87
2018-03-14T03:24:21.271Z,23.07
2018-03-14T03:29:04.625Z,23.23
2018-03-14T03:33:49.656Z,26.70
2018-03-14T03:38:33.089Z,24.50
2018-03-14T03:43:16.429Z,24.40
2018-03-14T03:57:36.531Z,23.77
2018-03-14T04:02:20.123Z,21.37
2018-03-14T04:07:03.478Z,21.13
2018-03-14T04:11:46.830Z,22.70
2018-03-14T04:16:30.186Z,23.23
2018-03-14T04:21:13.838Z,23.67
2018-03-14T04:25:57.171Z,21.20
2018-03-14T04:30:41.703Z,20.87
2018-03-14T04:35:26.689Z,19.97
2018-03-14T04:44:57.596Z,18.17
2018-03-14T04:49:40.910Z,17.50
2018-03-14T04:54:24.257Z,18.10
2018-03-14T04:59:10.907Z,16.00
2018-03-14T05:03:54.330Z,15.43
2018-03-14T05:08:37.672Z,14.53
2018-03-14T05:13:23.723Z,16.20
2018-03-14T05:18:09.282Z,14.73
2018-03-14T05:22:52.725Z,16.17
2018-03-14T05:27:37.229Z,17.00
2018-03-14T05:32:25.330Z,18.60
2018-03-14T05:37:08.879Z,20.07
2018-03-14T05:46:40.487Z,18.67
2018-03-14T05:51:32.216Z,19.40
2018-03-14T05:56:15.551Z,21.40
2018-03-14T06:00:58.902Z,21.67
2018-03-14T06:05:42.495Z,18.30
2018-03-14T06:10:26.578Z,19.20
2018-03-14T06:15:09.910Z,20.30
2018-03-14T06:19:53.287Z,14.33
2018-03-14T06:24:36.639Z,13.63
2018-03-14T06:29:20.003Z,13.07
2018-03-14T06:34:03.327Z,16.57
2018-03-14T06:38:49.747Z,11.20
2018-03-14T06:43:38.385Z,11.73
2018-03-14T06:53:10.812Z,15.33
2018-03-14T06:57:55.358Z,17.93
2018-03-14T07:02:47.604Z,15.23
2018-03-14T07:07:31.060Z,13.30
2018-03-14T07:12:14.829Z,10.17
2018-03-14T07:16:58.181Z,9.70
2018-03-14T07:21:41.546Z,11.47
2018-03-14T07:26:24.981Z,12.07
2018-03-14T07:31:09.137Z,12.27
2018-03-14T07:35:53.363Z,9.10
2018-03-14T07:40:36.806Z,11.43
2018-03-14T07:45:20.176Z,13.62
2018-03-14T07:50:04.276Z,11.07
2018-03-14T07:54:47.754Z,11.37
2018-03-14T07:59:32.194Z,12.63
2018-03-14T08:04:18.831Z,9.33
2018-03-14T08:09:04.033Z,10.47
2018-03-14T08:13:47.613Z,10.13
2018-03-14T08:18:41.048Z,10.47
2018-03-14T08:23:24.417Z,9.07
2018-03-14T08:28:07.786Z,8.20
2018-03-14T08:32:51.101Z,8.33
2018-03-14T08:37:34.429Z,8.50
2018-03-14T08:42:18.784Z,10.63
2018-03-14T08:47:02.111Z,11.47
2018-03-14T08:51:46.290Z,9.30
2018-03-14T08:56:29.605Z,8.97
2018-03-14T09:01:12.984Z,12.17
2018-03-14T09:20:26.258Z,8.07
2018-03-14T09:34:45.617Z,9.20
2018-03-14T09:39:28.965Z,7.73
2018-03-14T09:44:12.344Z,7.67
2018-03-14T09:48:55.757Z,10.47
2018-03-14T09:53:39.107Z,8.67
2018-03-14T09:58:23.237Z,7.93
2018-03-14T10:03:06.607Z,8.13
2018-03-14T10:13:38.677Z,8.17
2018-03-14T10:18:21.966Z,7.27
2018-03-14T10:23:06.107Z,6.90
2018-03-14T10:27:49.463Z,7.17
2018-03-14T10:32:32.854Z,7.90
2018-03-14T10:37:16.166Z,6.30
2018-03-14T10:41:59.512Z,6.77
2018-03-14T10:46:42.846Z,7.23
2018-03-14T10:51:26.210Z,7.57
2018-03-14T10:56:09.519Z,9.50
2018-03-14T11:00:56.784Z,8.23
2018-03-14T11:05:40.182Z,8.27
2018-03-14T11:10:24.325Z,6.80
2018-03-14T11:15:07.789Z,7.50
2018-03-14T11:19:52.072Z,7.13
2018-03-14T11:24:35.509Z,8.47
2018-03-14T11:29:18.844Z,7.27
2018-03-14T11:34:02.225Z,6.57
2018-03-14T11:38:45.583Z,8.47
2018-03-14T11:43:28.910Z,7.97
2018-03-14T11:48:12.231Z,6.93
2018-03-14T11:52:55.657Z,8.93
2018-03-14T11:57:39.026Z,7.03
2018-03-14T12:02:22.443Z,6.83
2018-03-14T12:07:05.911Z,8.37
2018-03-14T12:11:50.060Z,8.47
2018-03-14T12:16:34.089Z,6.57
2018-03-14T12:21:18.871Z,6.90
2018-03-14T12:31:20.595Z,8.70
2018-03-14T12:36:03.954Z,8.37
2018-03-14T12:40:47.665Z,5.87
2018-03-14T12:45:31.249Z,6.33
2018-03-14T12:50:14.684Z,7.17
2018-03-14T12:54:58.271Z,7.53
2018-03-14T12:59:41.649Z,9.10
2018-03-14T13:04:25.706Z,8.80
2018-03-14T13:09:09.059Z,9.97
2018-03-14T13:13:53.241Z,8.80
2018-03-14T13:18:36.617Z,9.40
2018-03-14T13:23:20.052Z,11.40
2018-03-14T13:28:03.503Z,10.50
2018-03-14T13:32:48.029Z,8.73
2018-03-14T13:37:31.403Z,8.63
2018-03-14T13:42:15.576Z,8.27
2018-03-14T13:46:59.076Z,7.90
2018-03-14T13:51:42.499Z,7.60
2018-03-14T13:56:25.824Z,8.17
2018-03-14T14:01:09.949Z,6.30
2018-03-14T14:05:54.151Z,6.73
2018-03-14T14:10:37.811Z,6.53
2018-03-14T14:15:21.244Z,7.47
2018-03-14T14:20:04.630Z,7.60
2018-03-14T14:24:48.061Z,9.17
2018-03-14T14:29:31.456Z,7.93
2018-03-14T14:34:15.071Z,8.83
2018-03-14T14:38:58.480Z,7.60
2018-03-14T14:43:42.586Z,7.73
2018-03-14T14:48:26.847Z,6.70
2018-03-14T14:53:10.989Z,5.33
2018-03-14T14:57:54.388Z,6.93
2018-03-14T15:02:37.760Z,4.27
2018-03-14T15:07:21.188Z,6.17
2018-03-14T15:12:04.525Z,6.10
2018-03-14T15:16:47.955Z,6.37
2018-03-14T15:21:31.415Z,6.97
2018-03-14T15:26:14.660Z,8.27
2018-03-14T15:30:58.388Z,8.25
2018-03-14T15:35:42.689Z,9.13
2018-03-14T15:40:26.063Z,5.90
2018-03-14T15:45:09.685Z,5.90
2018-03-14T15:49:53.803Z,9.13
2018-03-14T15:54:37.127Z,8.13
2018-03-14T15:59:20.463Z,6.57
2018-03-14T16:04:03.833Z,5.90
2018-03-14T16:08:47.183Z,7.53
2018-03-14T16:13:30.553Z,8.00
2018-03-14T16:18:14.657Z,7.97
2018-03-14T16:22:58.793Z,7.57
2018-03-14T16:27:42.092Z,7.27
2018-03-14T16:32:26.351Z,9.63
2018-03-14T16:37:09.635Z,7.67
2018-03-14T16:41:53.032Z,8.00
2018-03-14T16:46:36.424Z,7.10
2018-03-14T16:51:19.898Z,8.97
2018-03-14T16:56:03.955Z,7.13
2018-03-14T17:00:47.439Z,11.03
2018-03-14T17:05:31.125Z,7.93
2018-03-14T17:10:16.338Z,7.57
2018-03-14T17:15:00.711Z,8.13
2018-03-14T17:19:45.878Z,7.30
2018-03-14T17:24:29.555Z,10.37
2018-03-14T17:29:13.141Z,8.83
2018-03-14T17:33:57.026Z,10.33
2018-03-14T17:38:41.876Z,9.20
2018-03-14T17:43:25.645Z,9.90
2018-03-14T17:48:12.615Z,9.70
2018-03-14T17:53:07.413Z,8.43
2018-03-14T17:57:51.107Z,10.43
2018-03-14T18:02:41.775Z,12.77
2018-03-14T18:07:31.479Z,14.53
2018-03-14T18:12:17.810Z,11.37
2018-03-14T18:17:06.566Z,12.37
2018-03-14T18:21:51.195Z,12.53
2018-03-14T18:26:42.096Z,12.77
2018-03-14T18:31:26.198Z,12.83
2018-03-14T18:36:09.974Z,10.97
2018-03-14T18:40:54.156Z,12.83
2018-03-14T18:45:39.135Z,14.10
2018-03-14T18:50:28.967Z,11.13
2018-03-14T18:55:13.951Z,12.63
2018-03-14T18:59:58.295Z,12.00
2018-03-14T19:04:42.996Z,12.33
2018-03-14T19:09:26.350Z,11.80
2018-03-14T19:14:09.728Z,14.07
2018-03-14T19:18:53.047Z,12.43
2018-03-14T19:23:36.402Z,12.17
2018-03-14T19:28:19.819Z,12.97
2018-03-14T19:33:03.142Z,10.90
2018-03-14T19:37:46.496Z,10.07
2018-03-14T19:42:29.836Z,13.57
2018-03-14T19:47:13.184Z,13.87
2018-03-14T19:51:56.541Z,12.83
2018-03-14T19:56:39.869Z,12.27
2018-03-14T20:01:23.287Z,11.03
2018-03-14T20:06:07.413Z,15.13
2018-03-14T20:10:50.906Z,13.63
2018-03-14T20:15:34.221Z,13.53
2018-03-14T20:20:18.307Z,19.77
2018-03-14T20:25:01.663Z,17.63
2018-03-14T20:29:45.073Z,15.77
2018-03-14T20:34:28.424Z,18.70
2018-03-14T20:39:11.700Z,15.10
2018-03-14T20:43:55.048Z,15.13
2018-03-14T20:48:38.419Z,16.97
2018-03-14T20:53:21.805Z,15.70
2018-03-14T20:58:05.208Z,12.90
2018-03-14T21:02:49.319Z,13.13
2018-03-14T21:07:32.645Z,16.03
2018-03-14T21:12:16.001Z,14.87
2018-03-14T21:16:59.330Z,16.33
2018-03-14T21:21:42.725Z,15.80
2018-03-14T21:26:26.151Z,15.70
2018-03-14T21:31:10.315Z,15.73
2018-03-14T21:35:53.852Z,16.80
2018-03-14T21:40:37.224Z,17.27
2018-03-14T21:45:20.647Z,15.43
2018-03-14T21:50:04.751Z,12.40
2018-03-14T21:54:48.351Z,16.23
2018-03-14T21:59:32.478Z,15.17
2018-03-14T22:04:15.826Z,18.53
2018-03-14T22:08:59.140Z,15.07
2018-03-14T22:13:42.488Z,17.50
2018-03-14T22:18:25.863Z,15.83
2018-03-14T22:23:09.173Z,18.10
2018-03-14T22:27:52.520Z,17.93
2018-03-14T22:32:35.902Z,23.37
2018-03-14T22:37:20.023Z,19.10
2018-03-14T22:42:03.325Z,19.33
2018-03-14T22:46:46.712Z,21.20
2018-03-14T22:51:30.019Z,17.83
2018-03-14T22:56:13.354Z,21.77
2018-03-14T23:00:56.667Z,18.43
2018-03-14T23:05:40.775Z,18.07
2018-03-14T23:10:24.134Z,19.87
2018-03-14T23:15:07.460Z,21.10
2018-03-14T23:19:50.793Z,19.70
2018-03-14T23:24:34.136Z,20.97
2018-03-14T23:29:17.476Z,19.93
2018-03-14T23:34:00.821Z,19.57
2018-03-14T23:38:44.196Z,19.47
2018-03-14T23:43:28.312Z,14.87
2018-03-14T23:48:11.612Z,17.17
2018-03-14T23:52:55.004Z,16.80
2018-03-14T23:57:39.125Z,18.97
